sensor_id;sensor_type;location;lat;lon;timestamp;P1;durP1;ratioP1;P2;durP2;ratioP2
10467;SDS011;5281;48.878;9.394;2023-06-22T00:00:51;7.80;;;5.10;;
10467;SDS011;5281;48.878;9.394;2023-06-22T00:03:19;8.70;;;6.18;;
10467;SDS011;5281;48.878;9.394;2023-06-22T00:05:48;6.88;;;6.00;;
10467;SDS011;5281;48.878;9.394;2023-06-22T00:08:15;6.13;;;5.32;;
10467;SDS011;5281;48.878;9.394;2023-06-22T00:10:43;8.02;;;5.78;;
10467;SDS011;5281;48.878;9.394;2023-06-22T00:13:11;7.88;;;6.05;;
10467;SDS011;5281;48.878;9.394;2023-06-22T00:15:40;7.70;;;6.25;;
10467;SDS011;5281;48.878;9.394;2023-06-22T00:18:08;7.60;;;5.70;;
10467;SDS011;5281;48.878;9.394;2023-06-22T00:20:35;7.65;;;5.80;;
10467;SDS011;5281;48.878;9.394;2023-06-22T00:23:03;8.60;;;6.05;;
10467;SDS011;5281;48.878;9.394;2023-06-22T00:25:33;7.95;;;5.63;;
10467;SDS011;5281;48.878;9.394;2023-06-22T00:28:00;6.32;;;5.47;;
10467;SDS011;5281;48.878;9.394;2023-06-22T00:30:26;6.50;;;5.90;;
10467;SDS011;5281;48.878;9.394;2023-06-22T00:32:54;6.45;;;5.22;;
10467;SDS011;5281;48.878;9.394;2023-06-22T00:35:21;7.43;;;5.78;;
10467;SDS011;5281;48.878;9.394;2023-06-22T00:37:48;7.00;;;5.55;;
10467;SDS011;5281;48.878;9.394;2023-06-22T00:40:22;8.68;;;6.40;;
10467;SDS011;5281;48.878;9.394;2023-06-22T00:42:49;7.30;;;6.13;;
10467;SDS011;5281;48.878;9.394;2023-06-22T00:45:16;6.63;;;6.03;;
10467;SDS011;5281;48.878;9.394;2023-06-22T00:47:42;7.38;;;6.38;;
10467;SDS011;5281;48.878;9.394;2023-06-22T00:50:11;10.25;;;6.55;;
10467;SDS011;5281;48.878;9.394;2023-06-22T00:52:45;8.48;;;6.32;;
10467;SDS011;5281;48.878;9.394;2023-06-22T00:55:14;8.65;;;6.60;;
10467;SDS011;5281;48.878;9.394;2023-06-22T00:57:42;8.43;;;6.40;;
10467;SDS011;5281;48.878;9.394;2023-06-22T01:00:11;8.73;;;6.75;;
10467;SDS011;5281;48.878;9.394;2023-06-22T01:02:45;7.75;;;5.78;;
10467;SDS011;5281;48.878;9.394;2023-06-22T01:05:17;6.28;;;5.72;;
10467;SDS011;5281;48.878;9.394;2023-06-22T01:07:47;8.90;;;6.25;;
10467;SDS011;5281;48.878;9.394;2023-06-22T01:10:23;9.20;;;6.05;;
10467;SDS011;5281;48.878;9.394;2023-06-22T01:12:57;9.55;;;6.55;;
10467;SDS011;5281;48.878;9.394;2023-06-22T01:15:28;15.95;;;6.68;;
10467;SDS011;5281;48.878;9.394;2023-06-22T01:17:59;9.55;;;6.50;;
10467;SDS011;5281;48.878;9.394;2023-06-22T01:20:30;11.57;;;7.43;;
10467;SDS011;5281;48.878;9.394;2023-06-22T01:23:02;11.10;;;6.55;;
10467;SDS011;5281;48.878;9.394;2023-06-22T01:25:36;8.02;;;6.70;;
10467;SDS011;5281;48.878;9.394;2023-06-22T01:28:13;9.50;;;6.40;;
10467;SDS011;5281;48.878;9.394;2023-06-22T01:30:53;9.07;;;7.00;;
10467;SDS011;5281;48.878;9.394;2023-06-22T01:33:28;8.18;;;7.03;;
10467;SDS011;5281;48.878;9.394;2023-06-22T01:35:56;8.82;;;6.65;;
10467;SDS011;5281;48.878;9.394;2023-06-22T01:38:23;8.80;;;6.18;;
10467;SDS011;5281;48.878;9.394;2023-06-22T01:40:51;9.27;;;6.95;;
10467;SDS011;5281;48.878;9.394;2023-06-22T01:43:19;10.32;;;6.78;;
10467;SDS011;5281;48.878;9.394;2023-06-22T01:45:48;8.80;;;7.00;;
10467;SDS011;5281;48.878;9.394;2023-06-22T01:48:16;9.07;;;6.50;;
10467;SDS011;5281;48.878;9.394;2023-06-22T01:50:43;8.23;;;6.38;;
10467;SDS011;5281;48.878;9.394;2023-06-22T01:53:10;12.13;;;7.20;;
10467;SDS011;5281;48.878;9.394;2023-06-22T01:55:37;7.55;;;6.47;;
10467;SDS011;5281;48.878;9.394;2023-06-22T01:58:04;11.45;;;6.75;;
10467;SDS011;5281;48.878;9.394;2023-06-22T02:00:31;9.98;;;6.57;;
10467;SDS011;5281;48.878;9.394;2023-06-22T02:03:01;9.05;;;6.28;;
10467;SDS011;5281;48.878;9.394;2023-06-22T02:05:36;8.57;;;6.70;;
10467;SDS011;5281;48.878;9.394;2023-06-22T02:08:07;8.30;;;6.50;;
10467;SDS011;5281;48.878;9.394;2023-06-22T02:10:38;9.13;;;6.43;;
10467;SDS011;5281;48.878;9.394;2023-06-22T02:13:07;7.97;;;6.47;;
10467;SDS011;5281;48.878;9.394;2023-06-22T02:15:35;7.53;;;6.15;;
10467;SDS011;5281;48.878;9.394;2023-06-22T02:18:03;7.78;;;5.93;;
10467;SDS011;5281;48.878;9.394;2023-06-22T02:20:30;10.20;;;6.80;;
10467;SDS011;5281;48.878;9.394;2023-06-22T02:22:58;9.45;;;6.78;;
10467;SDS011;5281;48.878;9.394;2023-06-22T02:25:25;7.80;;;6.60;;
10467;SDS011;5281;48.878;9.394;2023-06-22T02:27:51;9.73;;;6.65;;
10467;SDS011;5281;48.878;9.394;2023-06-22T02:30:18;10.75;;;6.75;;
10467;SDS011;5281;48.878;9.394;2023-06-22T02:32:45;10.00;;;6.15;;
10467;SDS011;5281;48.878;9.394;2023-06-22T02:35:11;8.80;;;6.75;;
10467;SDS011;5281;48.878;9.394;2023-06-22T02:37:38;10.27;;;6.15;;
10467;SDS011;5281;48.878;9.394;2023-06-22T02:40:08;7.90;;;6.53;;
10467;SDS011;5281;48.878;9.394;2023-06-22T02:42:35;8.57;;;6.28;;
10467;SDS011;5281;48.878;9.394;2023-06-22T02:45:02;8.90;;;6.93;;
10467;SDS011;5281;48.878;9.394;2023-06-22T02:47:29;7.47;;;6.63;;
10467;SDS011;5281;48.878;9.394;2023-06-22T02:49:56;8.30;;;6.20;;
10467;SDS011;5281;48.878;9.394;2023-06-22T02:52:23;7.57;;;6.50;;
10467;SDS011;5281;48.878;9.394;2023-06-22T02:54:49;7.05;;;6.35;;
10467;SDS011;5281;48.878;9.394;2023-06-22T02:57:18;7.85;;;6.80;;
10467;SDS011;5281;48.878;9.394;2023-06-22T02:59:45;9.00;;;6.03;;
10467;SDS011;5281;48.878;9.394;2023-06-22T03:02:11;9.15;;;6.25;;
10467;SDS011;5281;48.878;9.394;2023-06-22T03:04:38;6.70;;;6.10;;
10467;SDS011;5281;48.878;9.394;2023-06-22T03:07:05;6.90;;;6.15;;
10467;SDS011;5281;48.878;9.394;2023-06-22T03:09:31;7.95;;;6.13;;
10467;SDS011;5281;48.878;9.394;2023-06-22T03:11:58;6.75;;;6.05;;
10467;SDS011;5281;48.878;9.394;2023-06-22T03:14:26;8.68;;;6.30;;
10467;SDS011;5281;48.878;9.394;2023-06-22T03:16:53;8.00;;;6.95;;
10467;SDS011;5281;48.878;9.394;2023-06-22T03:19:20;9.07;;;6.07;;
10467;SDS011;5281;48.878;9.394;2023-06-22T03:21:47;10.45;;;7.85;;
10467;SDS011;5281;48.878;9.394;2023-06-22T03:24:13;9.20;;;6.25;;
10467;SDS011;5281;48.878;9.394;2023-06-22T03:26:40;7.90;;;5.97;;
10467;SDS011;5281;48.878;9.394;2023-06-22T03:29:07;9.18;;;6.07;;
10467;SDS011;5281;48.878;9.394;2023-06-22T03:31:35;10.45;;;6.75;;
10467;SDS011;5281;48.878;9.394;2023-06-22T03:34:01;8.88;;;5.78;;
10467;SDS011;5281;48.878;9.394;2023-06-22T03:36:28;7.72;;;6.00;;
10467;SDS011;5281;48.878;9.394;2023-06-22T03:38:55;8.13;;;6.28;;
10467;SDS011;5281;48.878;9.394;2023-06-22T03:41:21;8.52;;;6.03;;
10467;SDS011;5281;48.878;9.394;2023-06-22T03:43:48;10.25;;;6.50;;
10467;SDS011;5281;48.878;9.394;2023-06-22T03:46:15;8.02;;;6.38;;
10467;SDS011;5281;48.878;9.394;2023-06-22T03:48:43;10.15;;;5.60;;
10467;SDS011;5281;48.878;9.394;2023-06-22T03:51:11;9.75;;;6.18;;
10467;SDS011;5281;48.878;9.394;2023-06-22T03:53:37;8.30;;;6.07;;
10467;SDS011;5281;48.878;9.394;2023-06-22T03:56:04;8.98;;;6.68;;
10467;SDS011;5281;48.878;9.394;2023-06-22T03:58:31;8.07;;;6.13;;
10467;SDS011;5281;48.878;9.394;2023-06-22T04:00:58;9.70;;;6.28;;
10467;SDS011;5281;48.878;9.394;2023-06-22T04:03:26;9.25;;;6.43;;
10467;SDS011;5281;48.878;9.394;2023-06-22T04:05:54;10.27;;;6.05;;
10467;SDS011;5281;48.878;9.394;2023-06-22T04:08:20;7.78;;;6.47;;
10467;SDS011;5281;48.878;9.394;2023-06-22T04:10:47;7.80;;;6.05;;
10467;SDS011;5281;48.878;9.394;2023-06-22T04:13:14;8.52;;;6.00;;
10467;SDS011;5281;48.878;9.394;2023-06-22T04:15:41;9.73;;;6.38;;
10467;SDS011;5281;48.878;9.394;2023-06-22T04:18:08;11.13;;;6.10;;
10467;SDS011;5281;48.878;9.394;2023-06-22T04:20:34;7.82;;;6.35;;
10467;SDS011;5281;48.878;9.394;2023-06-22T04:23:02;7.55;;;5.93;;
10467;SDS011;5281;48.878;9.394;2023-06-22T04:25:29;8.57;;;6.20;;
10467;SDS011;5281;48.878;9.394;2023-06-22T04:27:56;9.18;;;5.63;;
10467;SDS011;5281;48.878;9.394;2023-06-22T04:30:22;8.18;;;6.05;;
10467;SDS011;5281;48.878;9.394;2023-06-22T04:32:49;9.93;;;8.30;;
10467;SDS011;5281;48.878;9.394;2023-06-22T04:35:22;10.02;;;6.45;;
10467;SDS011;5281;48.878;9.394;2023-06-22T04:37:49;9.82;;;6.50;;
10467;SDS011;5281;48.878;9.394;2023-06-22T04:40:21;6.95;;;5.72;;
10467;SDS011;5281;48.878;9.394;2023-06-22T04:42:48;11.65;;;7.05;;
10467;SDS011;5281;48.878;9.394;2023-06-22T04:45:18;9.40;;;6.30;;
10467;SDS011;5281;48.878;9.394;2023-06-22T04:47:46;10.38;;;6.28;;
10467;SDS011;5281;48.878;9.394;2023-06-22T04:50:12;9.55;;;6.32;;
10467;SDS011;5281;48.878;9.394;2023-06-22T04:52:39;10.02;;;5.90;;
10467;SDS011;5281;48.878;9.394;2023-06-22T04:55:06;10.57;;;6.50;;
10467;SDS011;5281;48.878;9.394;2023-06-22T04:57:35;9.38;;;6.32;;
10467;SDS011;5281;48.878;9.394;2023-06-22T05:00:04;12.18;;;5.95;;
10467;SDS011;5281;48.878;9.394;2023-06-22T05:02:37;7.68;;;5.47;;
10467;SDS011;5281;48.878;9.394;2023-06-22T05:05:04;8.25;;;5.75;;
10467;SDS011;5281;48.878;9.394;2023-06-22T05:07:32;7.60;;;5.07;;
10467;SDS011;5281;48.878;9.394;2023-06-22T05:09:59;7.45;;;5.47;;
10467;SDS011;5281;48.878;9.394;2023-06-22T05:12:27;8.65;;;5.60;;
10467;SDS011;5281;48.878;9.394;2023-06-22T05:14:56;9.30;;;6.88;;
10467;SDS011;5281;48.878;9.394;2023-06-22T05:17:23;7.40;;;5.03;;
10467;SDS011;5281;48.878;9.394;2023-06-22T05:19:50;8.65;;;4.97;;
10467;SDS011;5281;48.878;9.394;2023-06-22T05:22:17;7.50;;;4.60;;
10467;SDS011;5281;48.878;9.394;2023-06-22T05:24:44;6.75;;;5.10;;
10467;SDS011;5281;48.878;9.394;2023-06-22T05:27:11;5.35;;;4.68;;
10467;SDS011;5281;48.878;9.394;2023-06-22T05:29:38;5.55;;;4.35;;
10467;SDS011;5281;48.878;9.394;2023-06-22T05:32:07;6.35;;;4.55;;
10467;SDS011;5281;48.878;9.394;2023-06-22T05:34:34;7.15;;;4.47;;
10467;SDS011;5281;48.878;9.394;2023-06-22T05:37:01;5.57;;;4.65;;
10467;SDS011;5281;48.878;9.394;2023-06-22T05:39:28;5.40;;;4.53;;
10467;SDS011;5281;48.878;9.394;2023-06-22T05:41:55;9.10;;;4.60;;
10467;SDS011;5281;48.878;9.394;2023-06-22T05:44:22;8.32;;;5.15;;
10467;SDS011;5281;48.878;9.394;2023-06-22T05:46:48;8.55;;;4.45;;
10467;SDS011;5281;48.878;9.394;2023-06-22T05:49:16;7.65;;;4.38;;
10467;SDS011;5281;48.878;9.394;2023-06-22T05:51:43;5.15;;;4.50;;
10467;SDS011;5281;48.878;9.394;2023-06-22T05:54:10;6.43;;;4.15;;
10467;SDS011;5281;48.878;9.394;2023-06-22T05:56:38;5.07;;;4.05;;
10467;SDS011;5281;48.878;9.394;2023-06-22T05:59:05;5.22;;;4.22;;
10467;SDS011;5281;48.878;9.394;2023-06-22T06:01:31;6.57;;;4.68;;
10467;SDS011;5281;48.878;9.394;2023-06-22T06:04:00;7.07;;;4.60;;
10467;SDS011;5281;48.878;9.394;2023-06-22T06:06:30;4.72;;;3.90;;
10467;SDS011;5281;48.878;9.394;2023-06-22T06:08:56;5.80;;;4.10;;
10467;SDS011;5281;48.878;9.394;2023-06-22T06:11:24;6.20;;;4.60;;
10467;SDS011;5281;48.878;9.394;2023-06-22T06:13:51;7.18;;;4.20;;
10467;SDS011;5281;48.878;9.394;2023-06-22T06:16:18;5.07;;;4.10;;
10467;SDS011;5281;48.878;9.394;2023-06-22T06:18:44;6.20;;;4.25;;
10467;SDS011;5281;48.878;9.394;2023-06-22T06:21:11;4.00;;;3.53;;
10467;SDS011;5281;48.878;9.394;2023-06-22T06:23:39;8.13;;;4.20;;
10467;SDS011;5281;48.878;9.394;2023-06-22T06:26:05;4.72;;;3.72;;
10467;SDS011;5281;48.878;9.394;2023-06-22T06:28:32;7.65;;;3.95;;
10467;SDS011;5281;48.878;9.394;2023-06-22T06:30:59;6.32;;;3.78;;
10467;SDS011;5281;48.878;9.394;2023-06-22T06:33:26;8.93;;;3.88;;
10467;SDS011;5281;48.878;9.394;2023-06-22T06:35:52;6.65;;;4.47;;
10467;SDS011;5281;48.878;9.394;2023-06-22T06:38:20;4.82;;;3.90;;
10467;SDS011;5281;48.878;9.394;2023-06-22T06:40:48;5.53;;;3.67;;
10467;SDS011;5281;48.878;9.394;2023-06-22T06:43:15;4.95;;;3.90;;
10467;SDS011;5281;48.878;9.394;2023-06-22T06:45:42;9.98;;;4.20;;
10467;SDS011;5281;48.878;9.394;2023-06-22T06:48:08;5.55;;;3.83;;
10467;SDS011;5281;48.878;9.394;2023-06-22T06:50:35;4.60;;;3.90;;
10467;SDS011;5281;48.878;9.394;2023-06-22T06:53:02;5.65;;;3.80;;
10467;SDS011;5281;48.878;9.394;2023-06-22T06:55:30;5.40;;;3.75;;
10467;SDS011;5281;48.878;9.394;2023-06-22T06:58:05;6.35;;;3.95;;
10467;SDS011;5281;48.878;9.394;2023-06-22T07:00:34;6.30;;;3.80;;
10467;SDS011;5281;48.878;9.394;2023-06-22T07:03:01;5.80;;;3.90;;
10467;SDS011;5281;48.878;9.394;2023-06-22T07:05:28;5.32;;;3.92;;
10467;SDS011;5281;48.878;9.394;2023-06-22T07:07:55;5.63;;;3.92;;
10467;SDS011;5281;48.878;9.394;2023-06-22T07:10:22;4.80;;;4.03;;
10467;SDS011;5281;48.878;9.394;2023-06-22T07:12:48;5.60;;;3.50;;
10467;SDS011;5281;48.878;9.394;2023-06-22T07:15:16;6.47;;;3.40;;
10467;SDS011;5281;48.878;9.394;2023-06-22T07:17:43;5.00;;;3.83;;
10467;SDS011;5281;48.878;9.394;2023-06-22T07:20:10;6.43;;;3.55;;
10467;SDS011;5281;48.878;9.394;2023-06-22T07:22:38;7.63;;;3.70;;
10467;SDS011;5281;48.878;9.394;2023-06-22T07:25:06;6.93;;;3.67;;
10467;SDS011;5281;48.878;9.394;2023-06-22T07:27:35;5.28;;;3.42;;
10467;SDS011;5281;48.878;9.394;2023-06-22T07:30:03;7.40;;;4.00;;
10467;SDS011;5281;48.878;9.394;2023-06-22T07:32:32;4.13;;;3.40;;
10467;SDS011;5281;48.878;9.394;2023-06-22T07:34:59;7.03;;;3.30;;
10467;SDS011;5281;48.878;9.394;2023-06-22T07:37:26;5.70;;;3.15;;
10467;SDS011;5281;48.878;9.394;2023-06-22T07:39:54;4.45;;;3.38;;
10467;SDS011;5281;48.878;9.394;2023-06-22T07:42:23;5.80;;;3.08;;
10467;SDS011;5281;48.878;9.394;2023-06-22T07:44:50;5.13;;;3.13;;
10467;SDS011;5281;48.878;9.394;2023-06-22T07:47:17;8.38;;;3.15;;
10467;SDS011;5281;48.878;9.394;2023-06-22T07:49:45;4.93;;;3.65;;
10467;SDS011;5281;48.878;9.394;2023-06-22T07:52:12;5.97;;;3.50;;
10467;SDS011;5281;48.878;9.394;2023-06-22T07:54:39;8.65;;;3.13;;
10467;SDS011;5281;48.878;9.394;2023-06-22T07:57:06;7.88;;;3.85;;
10467;SDS011;5281;48.878;9.394;2023-06-22T07:59:32;4.32;;;3.20;;
10467;SDS011;5281;48.878;9.394;2023-06-22T08:01:59;5.53;;;3.42;;
10467;SDS011;5281;48.878;9.394;2023-06-22T08:04:28;4.93;;;3.22;;
10467;SDS011;5281;48.878;9.394;2023-06-22T08:06:57;5.80;;;3.17;;
10467;SDS011;5281;48.878;9.394;2023-06-22T08:09:24;5.78;;;3.33;;
10467;SDS011;5281;48.878;9.394;2023-06-22T08:11:50;5.95;;;3.10;;
10467;SDS011;5281;48.878;9.394;2023-06-22T08:14:17;4.50;;;3.03;;
10467;SDS011;5281;48.878;9.394;2023-06-22T08:16:44;3.95;;;3.05;;
10467;SDS011;5281;48.878;9.394;2023-06-22T08:19:11;6.18;;;3.30;;
10467;SDS011;5281;48.878;9.394;2023-06-22T08:21:38;4.85;;;3.20;;
10467;SDS011;5281;48.878;9.394;2023-06-22T08:24:06;4.95;;;3.20;;
10467;SDS011;5281;48.878;9.394;2023-06-22T08:26:33;6.93;;;3.25;;
10467;SDS011;5281;48.878;9.394;2023-06-22T08:29:01;8.25;;;3.20;;
10467;SDS011;5281;48.878;9.394;2023-06-22T08:31:28;10.93;;;3.38;;
10467;SDS011;5281;48.878;9.394;2023-06-22T08:33:55;6.45;;;3.17;;
10467;SDS011;5281;48.878;9.394;2023-06-22T08:36:22;7.68;;;3.35;;
10467;SDS011;5281;48.878;9.394;2023-06-22T08:38:49;10.93;;;3.15;;
10467;SDS011;5281;48.878;9.394;2023-06-22T08:41:17;6.45;;;3.30;;
10467;SDS011;5281;48.878;9.394;2023-06-22T08:43:44;7.28;;;3.53;;
10467;SDS011;5281;48.878;9.394;2023-06-22T08:46:12;7.05;;;3.40;;
10467;SDS011;5281;48.878;9.394;2023-06-22T08:48:38;6.10;;;3.40;;
10467;SDS011;5281;48.878;9.394;2023-06-22T08:51:05;7.32;;;3.53;;
10467;SDS011;5281;48.878;9.394;2023-06-22T08:53:32;6.70;;;3.40;;
10467;SDS011;5281;48.878;9.394;2023-06-22T08:56:00;4.68;;;2.95;;
10467;SDS011;5281;48.878;9.394;2023-06-22T08:58:28;4.22;;;3.15;;
10467;SDS011;5281;48.878;9.394;2023-06-22T09:00:54;7.82;;;3.50;;
10467;SDS011;5281;48.878;9.394;2023-06-22T09:03:21;7.85;;;3.38;;
10467;SDS011;5281;48.878;9.394;2023-06-22T09:05:51;9.00;;;3.47;;
10467;SDS011;5281;48.878;9.394;2023-06-22T09:08:18;8.95;;;4.07;;
10467;SDS011;5281;48.878;9.394;2023-06-22T09:10:45;6.80;;;3.60;;
10467;SDS011;5281;48.878;9.394;2023-06-22T09:13:11;6.45;;;3.58;;
10467;SDS011;5281;48.878;9.394;2023-06-22T09:15:39;7.47;;;3.80;;
10467;SDS011;5281;48.878;9.394;2023-06-22T09:18:06;8.27;;;3.83;;
10467;SDS011;5281;48.878;9.394;2023-06-22T09:20:36;8.85;;;4.00;;
10467;SDS011;5281;48.878;9.394;2023-06-22T09:23:03;8.48;;;4.15;;
10467;SDS011;5281;48.878;9.394;2023-06-22T09:25:29;8.65;;;3.83;;
10467;SDS011;5281;48.878;9.394;2023-06-22T09:27:56;10.27;;;3.97;;
10467;SDS011;5281;48.878;9.394;2023-06-22T09:30:23;8.88;;;3.75;;
10467;SDS011;5281;48.878;9.394;2023-06-22T09:32:51;7.68;;;3.45;;
10467;SDS011;5281;48.878;9.394;2023-06-22T09:35:18;6.80;;;3.85;;
10467;SDS011;5281;48.878;9.394;2023-06-22T09:37:45;8.35;;;3.78;;
10467;SDS011;5281;48.878;9.394;2023-06-22T09:40:12;8.27;;;3.90;;
10467;SDS011;5281;48.878;9.394;2023-06-22T09:42:41;6.75;;;4.10;;
10467;SDS011;5281;48.878;9.394;2023-06-22T09:45:08;18.63;;;4.32;;
10467;SDS011;5281;48.878;9.394;2023-06-22T09:47:36;7.47;;;3.58;;
10467;SDS011;5281;48.878;9.394;2023-06-22T09:50:04;9.13;;;3.47;;
10467;SDS011;5281;48.878;9.394;2023-06-22T09:52:32;6.97;;;3.88;;
10467;SDS011;5281;48.878;9.394;2023-06-22T09:54:59;7.35;;;4.07;;
10467;SDS011;5281;48.878;9.394;2023-06-22T09:57:26;8.55;;;3.97;;
10467;SDS011;5281;48.878;9.394;2023-06-22T09:59:53;9.23;;;3.83;;
10467;SDS011;5281;48.878;9.394;2023-06-22T10:02:19;10.77;;;3.97;;
10467;SDS011;5281;48.878;9.394;2023-06-22T10:04:47;8.05;;;3.90;;
10467;SDS011;5281;48.878;9.394;2023-06-22T10:07:15;10.02;;;4.00;;
10467;SDS011;5281;48.878;9.394;2023-06-22T10:09:42;9.27;;;4.13;;
10467;SDS011;5281;48.878;9.394;2023-06-22T10:12:09;8.95;;;4.00;;
10467;SDS011;5281;48.878;9.394;2023-06-22T10:14:36;8.85;;;4.05;;
10467;SDS011;5281;48.878;9.394;2023-06-22T10:17:03;8.38;;;4.20;;
10467;SDS011;5281;48.878;9.394;2023-06-22T10:19:32;6.93;;;4.10;;
10467;SDS011;5281;48.878;9.394;2023-06-22T10:21:58;7.88;;;4.03;;
10467;SDS011;5281;48.878;9.394;2023-06-22T10:24:27;8.20;;;4.13;;
10467;SDS011;5281;48.878;9.394;2023-06-22T10:26:53;8.85;;;4.05;;
10467;SDS011;5281;48.878;9.394;2023-06-22T10:29:20;11.57;;;4.32;;
10467;SDS011;5281;48.878;9.394;2023-06-22T10:31:47;6.15;;;3.78;;
10467;SDS011;5281;48.878;9.394;2023-06-22T10:34:13;9.30;;;4.00;;
10467;SDS011;5281;48.878;9.394;2023-06-22T10:36:40;9.13;;;4.10;;
10467;SDS011;5281;48.878;9.394;2023-06-22T10:39:07;9.55;;;3.83;;
10467;SDS011;5281;48.878;9.394;2023-06-22T10:41:35;8.55;;;4.20;;
10467;SDS011;5281;48.878;9.394;2023-06-22T10:44:02;9.40;;;3.95;;
10467;SDS011;5281;48.878;9.394;2023-06-22T10:46:29;11.18;;;4.78;;
10467;SDS011;5281;48.878;9.394;2023-06-22T10:48:56;7.32;;;3.63;;
10467;SDS011;5281;48.878;9.394;2023-06-22T10:51:23;6.13;;;3.55;;
10467;SDS011;5281;48.878;9.394;2023-06-22T10:53:50;12.77;;;4.30;;
10467;SDS011;5281;48.878;9.394;2023-06-22T10:56:17;11.80;;;4.25;;
10467;SDS011;5281;48.878;9.394;2023-06-22T10:58:45;11.77;;;4.38;;
10467;SDS011;5281;48.878;9.394;2023-06-22T11:01:12;9.18;;;4.18;;
10467;SDS011;5281;48.878;9.394;2023-06-22T11:03:39;6.15;;;3.72;;
10467;SDS011;5281;48.878;9.394;2023-06-22T11:06:06;7.53;;;3.90;;
10467;SDS011;5281;48.878;9.394;2023-06-22T11:08:32;11.88;;;4.15;;
10467;SDS011;5281;48.878;9.394;2023-06-22T11:10:59;11.00;;;3.90;;
10467;SDS011;5281;48.878;9.394;2023-06-22T11:13:26;9.25;;;4.30;;
10467;SDS011;5281;48.878;9.394;2023-06-22T11:15:54;11.10;;;4.53;;
10467;SDS011;5281;48.878;9.394;2023-06-22T11:18:21;13.15;;;3.90;;
10467;SDS011;5281;48.878;9.394;2023-06-22T11:20:48;8.95;;;3.58;;
10467;SDS011;5281;48.878;9.394;2023-06-22T11:23:14;7.75;;;3.97;;
10467;SDS011;5281;48.878;9.394;2023-06-22T11:25:41;10.60;;;4.10;;
10467;SDS011;5281;48.878;9.394;2023-06-22T11:28:08;10.00;;;4.07;;
10467;SDS011;5281;48.878;9.394;2023-06-22T11:30:35;14.07;;;4.68;;
10467;SDS011;5281;48.878;9.394;2023-06-22T11:33:03;12.82;;;4.40;;
10467;SDS011;5281;48.878;9.394;2023-06-22T11:35:29;10.90;;;4.10;;
10467;SDS011;5281;48.878;9.394;2023-06-22T11:37:56;8.48;;;3.67;;
10467;SDS011;5281;48.878;9.394;2023-06-22T11:40:23;11.95;;;3.78;;
10467;SDS011;5281;48.878;9.394;2023-06-22T11:42:50;11.15;;;4.35;;
10467;SDS011;5281;48.878;9.394;2023-06-22T11:45:17;13.00;;;4.00;;
10467;SDS011;5281;48.878;9.394;2023-06-22T11:47:45;9.95;;;4.18;;
10467;SDS011;5281;48.878;9.394;2023-06-22T11:50:13;11.48;;;3.75;;
10467;SDS011;5281;48.878;9.394;2023-06-22T11:52:40;9.85;;;3.90;;
10467;SDS011;5281;48.878;9.394;2023-06-22T11:55:07;9.60;;;4.32;;
10467;SDS011;5281;48.878;9.394;2023-06-22T11:57:34;15.15;;;4.25;;
10467;SDS011;5281;48.878;9.394;2023-06-22T12:00:02;10.30;;;3.97;;
10467;SDS011;5281;48.878;9.394;2023-06-22T12:02:39;10.80;;;4.13;;
10467;SDS011;5281;48.878;9.394;2023-06-22T12:05:06;8.68;;;4.18;;
10467;SDS011;5281;48.878;9.394;2023-06-22T12:07:35;13.35;;;4.43;;
10467;SDS011;5281;48.878;9.394;2023-06-22T12:10:02;11.65;;;4.20;;
10467;SDS011;5281;48.878;9.394;2023-06-22T12:12:30;11.18;;;4.05;;
10467;SDS011;5281;48.878;9.394;2023-06-22T12:14:57;11.55;;;4.43;;
10467;SDS011;5281;48.878;9.394;2023-06-22T12:17:28;10.00;;;4.10;;
10467;SDS011;5281;48.878;9.394;2023-06-22T12:19:54;15.20;;;4.45;;
10467;SDS011;5281;48.878;9.394;2023-06-22T12:22:21;11.27;;;4.15;;
10467;SDS011;5281;48.878;9.394;2023-06-22T12:24:49;10.82;;;4.30;;
10467;SDS011;5281;48.878;9.394;2023-06-22T12:27:16;10.70;;;4.45;;
10467;SDS011;5281;48.878;9.394;2023-06-22T12:29:45;10.38;;;4.38;;
10467;SDS011;5281;48.878;9.394;2023-06-22T12:32:12;8.80;;;4.30;;
10467;SDS011;5281;48.878;9.394;2023-06-22T12:34:39;12.07;;;4.32;;
10467;SDS011;5281;48.878;9.394;2023-06-22T12:37:07;11.43;;;5.00;;
10467;SDS011;5281;48.878;9.394;2023-06-22T12:39:34;10.65;;;4.35;;
10467;SDS011;5281;48.878;9.394;2023-06-22T12:42:03;11.05;;;4.40;;
10467;SDS011;5281;48.878;9.394;2023-06-22T12:44:30;9.75;;;4.88;;
10467;SDS011;5281;48.878;9.394;2023-06-22T12:46:57;11.50;;;4.18;;
10467;SDS011;5281;48.878;9.394;2023-06-22T12:49:23;10.00;;;4.72;;
10467;SDS011;5281;48.878;9.394;2023-06-22T12:51:50;10.23;;;4.35;;
10467;SDS011;5281;48.878;9.394;2023-06-22T12:54:17;7.55;;;3.90;;
10467;SDS011;5281;48.878;9.394;2023-06-22T12:56:44;12.25;;;4.95;;
10467;SDS011;5281;48.878;9.394;2023-06-22T12:59:12;13.95;;;4.22;;
10467;SDS011;5281;48.878;9.394;2023-06-22T13:01:39;12.82;;;4.90;;
10467;SDS011;5281;48.878;9.394;2023-06-22T13:04:06;9.60;;;4.55;;
10467;SDS011;5281;48.878;9.394;2023-06-22T13:06:33;11.68;;;4.68;;
10467;SDS011;5281;48.878;9.394;2023-06-22T13:08:59;10.70;;;4.13;;
10467;SDS011;5281;48.878;9.394;2023-06-22T13:11:26;9.63;;;4.50;;
10467;SDS011;5281;48.878;9.394;2023-06-22T13:13:53;10.00;;;4.80;;
10467;SDS011;5281;48.878;9.394;2023-06-22T13:16:21;11.60;;;4.38;;
10467;SDS011;5281;48.878;9.394;2023-06-22T13:18:48;14.10;;;5.30;;
10467;SDS011;5281;48.878;9.394;2023-06-22T13:21:14;7.38;;;4.80;;
10467;SDS011;5281;48.878;9.394;2023-06-22T13:23:41;8.73;;;4.65;;
10467;SDS011;5281;48.878;9.394;2023-06-22T13:26:08;9.73;;;4.70;;
10467;SDS011;5281;48.878;9.394;2023-06-22T13:28:34;12.65;;;5.07;;
10467;SDS011;5281;48.878;9.394;2023-06-22T13:31:01;9.90;;;4.90;;
10467;SDS011;5281;48.878;9.394;2023-06-22T13:33:29;12.63;;;4.82;;
10467;SDS011;5281;48.878;9.394;2023-06-22T13:35:56;13.88;;;5.15;;
10467;SDS011;5281;48.878;9.394;2023-06-22T13:38:23;10.05;;;4.68;;
10467;SDS011;5281;48.878;9.394;2023-06-22T13:40:50;8.80;;;4.70;;
10467;SDS011;5281;48.878;9.394;2023-06-22T13:43:16;14.68;;;5.10;;
10467;SDS011;5281;48.878;9.394;2023-06-22T13:45:43;9.98;;;4.57;;
10467;SDS011;5281;48.878;9.394;2023-06-22T13:48:10;10.45;;;4.88;;
10467;SDS011;5281;48.878;9.394;2023-06-22T13:50:38;11.93;;;4.60;;
10467;SDS011;5281;48.878;9.394;2023-06-22T13:53:05;10.95;;;4.90;;
10467;SDS011;5281;48.878;9.394;2023-06-22T13:55:31;9.15;;;4.78;;
10467;SDS011;5281;48.878;9.394;2023-06-22T13:57:58;13.02;;;4.90;;
10467;SDS011;5281;48.878;9.394;2023-06-22T14:00:25;10.02;;;4.68;;
10467;SDS011;5281;48.878;9.394;2023-06-22T14:02:52;13.73;;;5.03;;
10467;SDS011;5281;48.878;9.394;2023-06-22T14:05:19;8.15;;;4.70;;
10467;SDS011;5281;48.878;9.394;2023-06-22T14:07:48;13.00;;;5.05;;
10467;SDS011;5281;48.878;9.394;2023-06-22T14:10:14;13.70;;;4.53;;
10467;SDS011;5281;48.878;9.394;2023-06-22T14:12:41;10.82;;;5.20;;
10467;SDS011;5281;48.878;9.394;2023-06-22T14:15:08;13.65;;;5.05;;
10467;SDS011;5281;48.878;9.394;2023-06-22T14:17:35;10.80;;;5.30;;
10467;SDS011;5281;48.878;9.394;2023-06-22T14:20:02;9.70;;;4.93;;
10467;SDS011;5281;48.878;9.394;2023-06-22T14:22:30;8.75;;;4.97;;
10467;SDS011;5281;48.878;9.394;2023-06-22T14:24:58;10.02;;;4.80;;
10467;SDS011;5281;48.878;9.394;2023-06-22T14:27:25;9.93;;;5.28;;
10467;SDS011;5281;48.878;9.394;2023-06-22T14:29:52;11.32;;;4.93;;
10467;SDS011;5281;48.878;9.394;2023-06-22T14:32:18;15.90;;;4.70;;
10467;SDS011;5281;48.878;9.394;2023-06-22T14:34:45;9.20;;;4.70;;
10467;SDS011;5281;48.878;9.394;2023-06-22T14:37:12;9.35;;;4.82;;
10467;SDS011;5281;48.878;9.394;2023-06-22T14:39:39;15.68;;;5.22;;
10467;SDS011;5281;48.878;9.394;2023-06-22T14:42:08;14.02;;;4.90;;
10467;SDS011;5281;48.878;9.394;2023-06-22T14:44:35;8.98;;;4.20;;
10467;SDS011;5281;48.878;9.394;2023-06-22T14:47:01;11.43;;;5.10;;
10467;SDS011;5281;48.878;9.394;2023-06-22T14:49:28;11.52;;;4.68;;
10467;SDS011;5281;48.878;9.394;2023-06-22T14:51:55;12.77;;;4.80;;
10467;SDS011;5281;48.878;9.394;2023-06-22T14:54:21;9.65;;;4.00;;
10467;SDS011;5281;48.878;9.394;2023-06-22T14:56:48;9.90;;;4.88;;
10467;SDS011;5281;48.878;9.394;2023-06-22T14:59:18;8.02;;;4.70;;